Terminal Aerodrome Forecast
Issued by NWS Melbourne, FL

Home | Current Version | Previous Version | Text Only | Print | Product List | Glossary On
Versions: 1 2 3 4 5 6 7 8 9 10 11 12 13 14 15 16 17 18
000
FTUS42 KMLB 031733
TAFDAB
TAF
KDAB 031733Z 0318/0418 30008KT P6SM VCSH SCT035 SCT250
     FM032000 36008KT P6SM VCTS SCT030CB BKN120
     FM040100 25003KT P6SM SCT120=

USA.gov is the U.S. government's official web portal to all federal, state and local government web resources and services.